createdAt,value
2017-08-24T01:35:31.882Z,14.53
2017-08-24T01:35:32.450Z,14.61
2017-08-24T01:35:33.048Z,14.62
2017-08-24T01:35:33.651Z,14.65
2017-08-24T01:35:34.246Z,14.60
2017-08-24T01:35:34.849Z,14.62
2017-08-24T01:35:35.486Z,14.57
2017-08-24T01:35:36.042Z,14.56
2017-08-24T01:36:29.503Z,14.60
2017-08-24T01:36:30.104Z,14.71
2017-08-24T01:36:30.701Z,14.65
2017-08-24T01:36:31.302Z,14.67
2017-08-24T01:36:31.901Z,14.62
2017-08-24T01:36:32.503Z,14.64
2017-08-24T01:36:33.098Z,14.62
2017-08-24T01:36:33.698Z,14.64
2017-08-24T01:37:27.155Z,14.60
2017-08-24T01:37:27.749Z,14.56
2017-08-24T01:37:28.348Z,14.60
2017-08-24T01:37:28.952Z,14.69
2017-08-24T01:37:29.551Z,14.57
2017-08-24T01:37:30.155Z,14.64
2017-08-24T01:37:30.750Z,14.62
2017-08-24T01:37:31.346Z,14.57
2017-08-24T01:38:25.838Z,14.61
2017-08-24T01:38:26.427Z,14.61
2017-08-24T01:38:27.026Z,14.65
2017-08-24T01:38:27.625Z,14.64
2017-08-24T01:38:28.233Z,14.65
2017-08-24T01:38:28.822Z,14.57
2017-08-24T01:38:29.429Z,14.60
2017-08-24T01:38:30.025Z,14.57
2017-08-24T01:39:23.486Z,14.50
2017-08-24T01:39:24.096Z,14.54
2017-08-24T01:39:24.689Z,14.61
2017-08-24T01:39:25.283Z,14.61
2017-08-24T01:39:25.902Z,14.62
2017-08-24T01:39:26.482Z,14.57
2017-08-24T01:39:27.079Z,14.57
2017-08-24T01:39:27.680Z,14.49
2017-08-24T01:40:22.673Z,14.56
2017-08-24T01:40:23.281Z,14.62
2017-08-24T01:40:23.867Z,14.65
2017-08-24T01:40:24.465Z,14.57
2017-08-24T01:40:25.068Z,14.61
2017-08-24T01:40:25.677Z,14.57
2017-08-24T01:40:26.276Z,14.57
2017-08-24T01:41:21.559Z,14.61
2017-08-24T01:41:22.071Z,14.61
2017-08-24T01:41:22.672Z,14.56
2017-08-24T01:41:23.274Z,14.60
2017-08-24T01:41:23.868Z,14.65
2017-08-24T01:41:24.471Z,14.56
2017-08-24T01:41:25.066Z,14.61
2017-08-24T01:42:18.594Z,14.62
2017-08-24T01:42:19.204Z,14.61
2017-08-24T01:42:19.794Z,14.69
2017-08-24T01:42:20.385Z,14.69
2017-08-24T01:42:21.014Z,14.65
2017-08-24T01:42:21.590Z,14.69
2017-08-24T01:42:22.185Z,14.57
2017-08-24T01:42:22.783Z,14.72
2017-08-24T01:43:16.242Z,14.68
2017-08-24T01:43:16.837Z,14.74
2017-08-24T01:43:17.435Z,14.65
2017-08-24T01:43:18.040Z,14.69
2017-08-24T01:43:18.642Z,14.64
2017-08-24T01:43:19.241Z,14.71
2017-08-24T01:43:19.839Z,14.67
2017-08-24T01:43:20.439Z,14.67
2017-08-24T01:44:13.897Z,14.64
2017-08-24T01:44:14.495Z,14.64
2017-08-24T01:44:15.095Z,14.74
2017-08-24T01:44:15.693Z,14.72
2017-08-24T01:44:16.299Z,14.65
2017-08-24T01:44:16.899Z,14.71
2017-08-24T01:44:17.487Z,14.67
2017-08-24T01:44:18.086Z,14.64
2017-08-24T01:45:12.058Z,14.71
2017-08-24T01:45:12.657Z,14.75
2017-08-24T01:45:13.259Z,14.72
2017-08-24T01:45:13.853Z,14.71
2017-08-24T01:45:14.466Z,14.84
2017-08-24T01:45:15.055Z,14.74
2017-08-24T01:45:15.656Z,14.75
2017-08-24T01:46:10.124Z,14.84
2017-08-24T01:46:10.715Z,14.86
2017-08-24T01:46:11.320Z,14.74
2017-08-24T01:46:11.915Z,14.84
2017-08-24T01:46:12.515Z,14.81
2017-08-24T01:46:13.113Z,14.86
2017-08-24T01:46:13.715Z,14.78
2017-08-24T01:46:14.312Z,14.80
2017-08-24T01:47:07.811Z,14.87
2017-08-24T01:47:08.368Z,14.80
2017-08-24T01:47:08.972Z,14.83
2017-08-24T01:47:09.571Z,14.80
2017-08-24T01:47:10.170Z,14.91
2017-08-24T01:47:10.771Z,14.90
2017-08-24T01:47:11.365Z,14.75
2017-08-24T01:47:12.004Z,14.83
2017-08-24T01:48:06.447Z,14.84
2017-08-24T01:48:07.043Z,14.83
2017-08-24T01:48:07.645Z,14.83
2017-08-24T01:48:08.240Z,14.80
2017-08-24T01:48:08.862Z,14.83
2017-08-24T01:48:09.443Z,14.80
2017-08-24T01:48:10.053Z,14.78
2017-08-24T01:48:10.643Z,14.86
2017-08-24T01:49:05.119Z,14.84
2017-08-24T01:49:05.719Z,14.84
2017-08-24T01:49:06.347Z,14.87
2017-08-24T01:49:06.917Z,14.81
2017-08-24T01:49:07.518Z,14.86
2017-08-24T01:49:08.125Z,14.87
2017-08-24T01:49:08.729Z,14.84
2017-08-24T01:49:09.322Z,14.86
2017-08-24T01:50:03.795Z,14.84
2017-08-24T01:50:04.395Z,14.87
2017-08-24T01:50:05.013Z,14.84
2017-08-24T01:50:05.588Z,14.90
2017-08-24T01:50:06.205Z,14.91
2017-08-24T01:50:06.796Z,14.81
2017-08-24T01:50:07.396Z,14.91
2017-08-24T01:50:07.991Z,14.83
2017-08-24T01:51:02.066Z,14.95
2017-08-24T01:51:02.662Z,14.93
2017-08-24T01:51:03.261Z,14.93
2017-08-24T01:51:03.861Z,14.90
2017-08-24T01:51:04.461Z,14.95
2017-08-24T01:51:05.058Z,14.94
2017-08-24T01:51:05.657Z,14.94
2017-08-24T01:52:00.125Z,14.94
2017-08-24T01:52:00.725Z,15.01
2017-08-24T01:52:01.323Z,14.98
2017-08-24T01:52:01.919Z,14.94
2017-08-24T01:52:02.522Z,14.94
2017-08-24T01:52:03.126Z,15.01
2017-08-24T01:52:03.721Z,14.95
2017-08-24T01:52:04.328Z,14.99
2017-08-24T01:52:57.803Z,15.02
2017-08-24T01:52:58.376Z,14.91
2017-08-24T01:52:58.979Z,15.03
2017-08-24T01:52:59.578Z,14.99
2017-08-24T01:53:00.175Z,14.99
2017-08-24T01:53:00.778Z,14.99
2017-08-24T01:53:01.372Z,14.98
2017-08-24T01:53:01.974Z,15.01
2017-08-24T01:53:55.437Z,14.95
2017-08-24T01:53:56.026Z,15.05
2017-08-24T01:53:56.640Z,15.06
2017-08-24T01:53:57.229Z,15.06
2017-08-24T01:53:57.826Z,15.11
2017-08-24T01:53:58.420Z,15.06
2017-08-24T01:53:59.025Z,15.06
2017-08-24T01:53:59.633Z,15.05
2017-08-24T01:54:54.113Z,15.06
2017-08-24T01:54:54.700Z,15.15
2017-08-24T01:54:55.304Z,15.09
2017-08-24T01:54:55.900Z,15.17
2017-08-24T01:54:56.500Z,15.09
2017-08-24T01:54:57.097Z,15.12
2017-08-24T01:54:57.704Z,15.05
2017-08-24T01:54:58.316Z,15.09
2017-08-24T01:55:51.758Z,15.12
2017-08-24T01:55:52.351Z,15.13
2017-08-24T01:55:52.974Z,15.15
2017-08-24T01:55:53.553Z,15.08
2017-08-24T01:55:54.150Z,15.13
2017-08-24T01:55:54.754Z,15.11
2017-08-24T01:55:55.377Z,15.15
2017-08-24T01:55:55.954Z,15.17
2017-08-24T01:56:49.414Z,15.13
2017-08-24T01:56:50.005Z,15.09
2017-08-24T01:56:51.486Z,15.08
2017-08-24T01:56:51.991Z,15.13
2017-08-24T01:56:52.591Z,15.13
2017-08-24T01:56:53.199Z,15.13
2017-08-24T01:56:53.803Z,15.19
2017-08-24T01:57:47.298Z,15.15
2017-08-24T01:57:47.863Z,15.15
2017-08-24T01:57:48.496Z,15.20
2017-08-24T01:57:49.065Z,15.24
2017-08-24T01:57:49.666Z,15.19
2017-08-24T01:57:50.271Z,15.11
2017-08-24T01:57:50.863Z,15.20
2017-08-24T01:57:51.464Z,15.20
2017-08-24T01:58:45.425Z,15.20
2017-08-24T01:58:46.022Z,15.20
2017-08-24T01:58:46.631Z,15.24
2017-08-24T01:58:47.224Z,15.21
2017-08-24T01:58:47.821Z,15.20
2017-08-24T01:58:48.424Z,15.24
2017-08-24T01:58:49.032Z,15.24
2017-08-24T01:59:44.006Z,15.23
2017-08-24T01:59:44.598Z,15.33
2017-08-24T01:59:45.201Z,15.27
2017-08-24T01:59:45.798Z,15.30
2017-08-24T01:59:46.393Z,15.28
2017-08-24T01:59:46.997Z,15.30
2017-08-24T01:59:47.599Z,15.33
2017-08-24T02:00:41.148Z,15.28
2017-08-24T02:00:41.737Z,15.21
2017-08-24T02:00:42.340Z,15.33
2017-08-24T02:00:42.941Z,15.31
2017-08-24T02:00:43.541Z,15.30
2017-08-24T02:00:44.144Z,15.27
2017-08-24T02:00:44.747Z,15.23
2017-08-24T02:00:45.347Z,15.36
2017-08-24T02:01:38.792Z,15.30
2017-08-24T02:01:39.387Z,15.33
2017-08-24T02:01:40.009Z,15.31
2017-08-24T02:01:40.593Z,15.35
2017-08-24T02:01:41.191Z,15.23
2017-08-24T02:01:41.791Z,15.36
2017-08-24T02:01:42.420Z,15.31
2017-08-24T02:01:42.986Z,15.33
2017-08-24T02:02:36.446Z,15.38
2017-08-24T02:02:37.050Z,15.39
2017-08-24T02:02:37.647Z,15.33
2017-08-24T02:02:38.246Z,15.35
2017-08-24T02:02:38.865Z,15.38
2017-08-24T02:02:39.441Z,15.38
2017-08-24T02:02:40.039Z,15.36
2017-08-24T02:02:40.639Z,15.28
2017-08-24T02:03:34.125Z,15.35
2017-08-24T02:03:34.695Z,15.36
2017-08-24T02:03:35.296Z,15.36
2017-08-24T02:03:35.895Z,15.36
2017-08-24T02:03:36.490Z,15.33
2017-08-24T02:03:37.095Z,15.42
2017-08-24T02:03:37.695Z,15.39
2017-08-24T02:03:38.296Z,15.45
2017-08-24T02:04:31.749Z,15.45
2017-08-24T02:04:32.345Z,15.43
2017-08-24T02:04:32.946Z,15.42
2017-08-24T02:04:33.591Z,15.35
2017-08-24T02:04:34.141Z,15.46
2017-08-24T02:04:34.743Z,15.45
2017-08-24T02:04:35.357Z,15.43
2017-08-24T02:04:35.945Z,15.41
2017-08-24T02:05:29.399Z,15.43
2017-08-24T02:05:30.033Z,15.48
2017-08-24T02:05:30.598Z,15.41
2017-08-24T02:05:31.193Z,15.35
2017-08-24T02:05:31.797Z,15.48
2017-08-24T02:05:32.400Z,15.49
2017-08-24T02:05:33.002Z,15.45
2017-08-24T02:05:33.602Z,15.41
2017-08-24T02:06:27.053Z,15.49
2017-08-24T02:06:27.656Z,15.54
2017-08-24T02:06:28.256Z,15.54
2017-08-24T02:06:28.853Z,15.54
2017-08-24T02:06:29.458Z,15.54
2017-08-24T02:06:30.053Z,15.52
2017-08-24T02:06:30.650Z,15.52
2017-08-24T02:06:31.251Z,15.52
2017-08-24T02:07:24.713Z,15.49
2017-08-24T02:07:25.304Z,15.63
2017-08-24T02:07:25.903Z,15.56
2017-08-24T02:07:26.497Z,15.54
2017-08-24T02:07:27.097Z,15.49
2017-08-24T02:07:27.696Z,15.64
2017-08-24T02:07:28.303Z,15.57
2017-08-24T02:07:28.900Z,15.59
2017-08-24T02:08:22.354Z,15.61
2017-08-24T02:08:22.952Z,15.64
2017-08-24T02:08:23.550Z,15.60
2017-08-24T02:08:24.152Z,15.66
2017-08-24T02:08:24.749Z,15.61
2017-08-24T02:08:25.358Z,15.61
2017-08-24T02:08:25.952Z,15.63
2017-08-24T02:08:26.551Z,15.64
2017-08-24T02:09:21.066Z,15.67
2017-08-24T02:09:22.587Z,15.66
2017-08-24T02:09:23.109Z,15.67
2017-08-24T02:09:23.702Z,15.64
2017-08-24T02:09:24.291Z,15.67
2017-08-24T02:09:24.892Z,15.68
2017-08-24T02:09:25.498Z,15.67
2017-08-24T02:10:20.034Z,15.61
2017-08-24T02:10:20.611Z,15.64
2017-08-24T02:10:21.214Z,15.66
2017-08-24T02:10:21.842Z,15.64
2017-08-24T02:10:22.406Z,15.66
2017-08-24T02:10:23.012Z,15.68
2017-08-24T02:10:23.610Z,15.66
2017-08-24T02:11:17.566Z,15.66
2017-08-24T02:11:18.168Z,15.75
2017-08-24T02:11:18.768Z,15.66
2017-08-24T02:11:19.358Z,15.66
2017-08-24T02:11:19.964Z,15.66
2017-08-24T02:11:20.562Z,15.74
2017-08-24T02:11:21.161Z,15.68
2017-08-24T02:12:15.121Z,15.66
2017-08-24T02:12:15.706Z,15.78
2017-08-24T02:12:16.315Z,15.75
2017-08-24T02:12:16.903Z,15.76
2017-08-24T02:12:17.504Z,15.75
2017-08-24T02:12:18.106Z,15.70
2017-08-24T02:12:18.704Z,15.74
2017-08-24T02:13:32.017Z,15.72
2017-08-24T02:13:32.616Z,15.76
2017-08-24T02:13:33.219Z,15.74
2017-08-24T02:13:33.813Z,15.74
2017-08-24T02:13:34.411Z,15.79
2017-08-24T02:13:35.011Z,15.75
2017-08-24T02:13:35.614Z,15.74
2017-08-24T02:14:29.193Z,15.75
2017-08-24T02:14:29.753Z,15.72
2017-08-24T02:14:30.355Z,15.72
2017-08-24T02:14:30.949Z,15.76
2017-08-24T02:14:31.549Z,15.74
2017-08-24T02:14:32.156Z,15.78
2017-08-24T02:14:32.749Z,15.79
2017-08-24T02:14:33.352Z,15.72
2017-08-24T02:15:27.316Z,15.76
2017-08-24T02:15:27.911Z,15.74
2017-08-24T02:15:28.514Z,15.74
2017-08-24T02:15:29.114Z,15.76
2017-08-24T02:15:29.714Z,15.74
2017-08-24T02:15:30.324Z,15.78
2017-08-24T02:15:30.910Z,15.75
2017-08-24T02:16:24.458Z,15.76
2017-08-24T02:16:25.052Z,15.79
2017-08-24T02:16:25.694Z,15.68
2017-08-24T02:16:26.253Z,15.70
2017-08-24T02:16:26.851Z,15.75
2017-08-24T02:16:27.459Z,15.75
2017-08-24T02:16:28.066Z,15.86
2017-08-24T02:16:28.665Z,15.82
2017-08-24T02:17:23.131Z,15.85
2017-08-24T02:17:23.732Z,15.74
2017-08-24T02:17:24.330Z,15.79
2017-08-24T02:17:24.932Z,15.86
2017-08-24T02:17:25.532Z,15.82
2017-08-24T02:17:26.133Z,15.82
2017-08-24T02:17:26.730Z,15.85
2017-08-24T02:17:27.354Z,15.85
2017-08-24T02:18:20.793Z,15.84
2017-08-24T02:18:21.380Z,15.81
2017-08-24T02:18:21.984Z,15.88
2017-08-24T02:18:22.583Z,15.86
2017-08-24T02:18:23.183Z,15.81
2017-08-24T02:18:23.783Z,15.85
2017-08-24T02:18:24.387Z,15.81
2017-08-24T02:18:24.987Z,15.84
2017-08-24T02:19:19.461Z,15.88
2017-08-24T02:19:20.071Z,15.88
2017-08-24T02:19:20.659Z,15.86
2017-08-24T02:19:21.255Z,15.85
2017-08-24T02:19:21.855Z,15.85
2017-08-24T02:19:22.456Z,15.88
2017-08-24T02:19:23.063Z,15.89
2017-08-24T02:19:23.659Z,15.92
2017-08-24T02:20:17.147Z,15.76
2017-08-24T02:20:17.711Z,15.85
2017-08-24T02:20:18.328Z,15.89
2017-08-24T02:20:18.914Z,15.88
2017-08-24T02:20:19.512Z,15.88
2017-08-24T02:20:20.106Z,15.93
2017-08-24T02:20:20.710Z,15.82
2017-08-24T02:20:21.305Z,15.76
2017-08-24T02:21:15.279Z,15.92
2017-08-24T02:21:15.878Z,15.78
2017-08-24T02:21:16.476Z,15.86
2017-08-24T02:21:17.077Z,15.89
2017-08-24T02:21:17.671Z,15.88
2017-08-24T02:21:18.281Z,15.82
2017-08-24T02:21:18.869Z,15.92
2017-08-24T02:22:14.060Z,15.79
2017-08-24T02:22:14.670Z,15.84
2017-08-24T02:22:15.254Z,15.93
2017-08-24T02:22:15.847Z,15.88
2017-08-24T02:22:16.445Z,15.84
2017-08-24T02:22:17.050Z,15.85
2017-08-24T02:22:17.645Z,15.88
2017-08-24T02:22:18.252Z,15.86
2017-08-24T02:23:12.222Z,15.86
2017-08-24T02:23:12.827Z,15.85
2017-08-24T02:23:13.420Z,15.88
2017-08-24T02:23:14.018Z,15.92
2017-08-24T02:23:14.616Z,15.92
2017-08-24T02:23:15.217Z,15.89
2017-08-24T02:23:15.809Z,15.85
2017-08-24T02:24:44.383Z,15.82
2017-08-24T02:24:44.977Z,15.92
2017-08-24T02:24:45.575Z,15.89
2017-08-24T02:24:46.176Z,15.88
2017-08-24T02:24:46.777Z,15.86
2017-08-24T02:24:47.375Z,15.88
2017-08-24T02:24:47.977Z,15.88
2017-08-24T02:24:48.572Z,15.94
2017-08-24T02:24:49.174Z,15.85
2017-08-24T02:24:49.774Z,15.86
2017-08-24T02:24:50.373Z,15.88
2017-08-24T02:24:50.972Z,15.85
2017-08-24T02:24:51.632Z,15.94
2017-08-24T02:24:52.174Z,15.88
2017-08-24T02:24:52.774Z,15.89
2017-08-24T02:24:53.373Z,15.93
2017-08-24T02:24:53.972Z,15.89
2017-08-24T02:24:54.573Z,15.92
2017-08-24T02:25:48.108Z,15.88
2017-08-24T02:25:48.670Z,15.93
2017-08-24T02:25:49.266Z,15.88
2017-08-24T02:25:49.869Z,15.94
2017-08-24T02:25:50.471Z,15.89
2017-08-24T02:25:51.077Z,15.93
2017-08-24T02:25:51.708Z,15.85
2017-08-24T02:25:52.274Z,15.94
2017-08-24T02:27:03.234Z,15.86
2017-08-24T02:27:03.830Z,15.94
2017-08-24T02:27:04.430Z,15.89
2017-08-24T02:27:05.029Z,15.92
2017-08-24T02:27:05.632Z,15.92
2017-08-24T02:27:06.227Z,15.89
2017-08-24T02:27:06.830Z,15.99
2017-08-24T02:27:07.482Z,15.92
2017-08-24T02:27:08.030Z,15.93
2017-08-24T02:27:08.632Z,15.89
2017-08-24T02:27:09.234Z,15.92
2017-08-24T02:27:09.833Z,15.97
2017-08-24T02:27:10.430Z,15.97
2017-08-24T02:27:11.102Z,15.92
2017-08-24T02:28:12.870Z,15.94
2017-08-24T02:28:13.469Z,15.96
2017-08-24T02:28:14.064Z,16.01
2017-08-24T02:28:14.687Z,15.99
2017-08-24T02:28:15.260Z,16.03
2017-08-24T02:28:15.860Z,15.97
2017-08-24T02:28:16.467Z,15.97
2017-08-24T02:28:17.061Z,15.96
2017-08-24T02:28:17.660Z,15.96
2017-08-24T02:28:18.260Z,16.03
2017-08-24T02:28:18.862Z,15.96
2017-08-24T02:28:19.463Z,15.99
2017-08-24T02:29:13.485Z,15.99
2017-08-24T02:29:14.086Z,16.00
2017-08-24T02:29:14.688Z,15.97
2017-08-24T02:29:15.288Z,15.99
2017-08-24T02:29:15.888Z,16.00
2017-08-24T02:29:16.484Z,15.99
2017-08-24T02:29:17.087Z,15.94
2017-08-24T02:30:11.058Z,16.01
2017-08-24T02:30:11.636Z,15.96
2017-08-24T02:30:12.231Z,16.03
2017-08-24T02:30:12.836Z,15.96
2017-08-24T02:30:13.440Z,16.00
2017-08-24T02:30:14.039Z,15.96
2017-08-24T02:30:14.638Z,15.96
2017-08-24T02:31:15.682Z,15.97
2017-08-24T02:31:16.245Z,15.94
2017-08-24T02:31:16.852Z,15.97
2017-08-24T02:31:17.451Z,15.94
2017-08-24T02:31:18.052Z,15.97
2017-08-24T02:31:18.649Z,15.97
2017-08-24T02:31:19.249Z,15.96
2017-08-24T02:31:19.852Z,15.99
2017-08-24T02:31:20.452Z,15.94
2017-08-24T02:31:21.137Z,15.97
2017-08-24T02:31:21.645Z,16.01
2017-08-24T02:31:22.245Z,15.94
2017-08-24T02:32:18.732Z,15.97
2017-08-24T02:32:19.326Z,16.06
2017-08-24T02:32:19.925Z,16.06
2017-08-24T02:50:56.761Z,15.68
2017-08-24T02:50:57.332Z,15.82
2017-08-24T02:50:57.937Z,15.72
2017-08-24T02:50:58.538Z,15.75
2017-08-24T02:50:59.138Z,15.70
2017-08-24T02:50:59.730Z,15.85
2017-08-24T02:51:00.334Z,15.84
2017-08-24T02:51:00.938Z,15.70
2017-08-24T02:51:55.416Z,15.76
2017-08-24T02:51:56.008Z,15.74
2017-08-24T02:51:56.608Z,15.78
2017-08-24T02:51:57.206Z,15.76
2017-08-24T02:51:57.807Z,15.76
2017-08-24T02:51:58.410Z,15.74
2017-08-24T02:51:59.007Z,15.72
2017-08-24T02:51:59.606Z,15.74
2017-08-24T02:52:53.064Z,15.68
2017-08-24T02:52:53.664Z,15.79
2017-08-24T02:52:54.262Z,15.75
2017-08-24T02:52:54.861Z,15.75
2017-08-24T02:52:55.466Z,15.75
2017-08-24T02:52:56.066Z,15.72
2017-08-24T02:52:56.667Z,15.76
2017-08-24T02:52:57.269Z,15.74
2017-08-24T02:53:50.716Z,15.63
2017-08-24T02:53:51.311Z,15.75
2017-08-24T02:53:51.916Z,15.70
2017-08-24T02:53:52.515Z,15.76
2017-08-24T02:53:53.115Z,15.74
2017-08-24T02:53:53.715Z,15.75
2017-08-24T02:53:54.319Z,15.72
2017-08-24T02:53:54.914Z,15.76
2017-08-24T02:54:48.398Z,15.64
2017-08-24T02:54:48.969Z,15.66
2017-08-24T02:54:49.571Z,15.63
2017-08-24T02:54:50.172Z,15.66
2017-08-24T02:54:50.767Z,15.74
2017-08-24T02:54:51.368Z,15.66
2017-08-24T02:54:51.965Z,15.61
2017-08-24T02:54:52.566Z,15.64
2017-08-24T02:55:46.021Z,15.59
2017-08-24T02:55:46.620Z,15.60
2017-08-24T02:55:47.220Z,15.59
2017-08-24T02:55:47.819Z,15.59
2017-08-24T02:55:48.423Z,15.68
2017-08-24T02:55:49.019Z,15.61
2017-08-24T02:55:49.618Z,15.68
2017-08-24T02:55:50.215Z,15.64
2017-08-24T02:56:43.683Z,15.63
2017-08-24T02:56:44.274Z,15.67
2017-08-24T02:56:44.871Z,15.67
2017-08-24T02:56:45.471Z,15.64
2017-08-24T02:56:46.070Z,15.64
2017-08-24T02:56:46.673Z,15.68
2017-08-24T02:56:47.266Z,15.66
2017-08-24T02:56:47.867Z,15.64
2017-08-24T02:57:41.327Z,15.57
2017-08-24T02:57:41.924Z,15.64
2017-08-24T02:57:42.528Z,15.61
2017-08-24T02:57:43.124Z,15.59
2017-08-24T02:57:43.728Z,15.66
2017-08-24T02:57:44.324Z,15.64
2017-08-24T02:57:44.924Z,15.56
2017-08-24T02:57:45.526Z,15.66
2017-08-24T02:58:40.003Z,15.68
2017-08-24T02:58:40.596Z,15.67
2017-08-24T02:58:41.199Z,15.64
2017-08-24T02:58:41.802Z,15.59
2017-08-24T02:58:42.401Z,15.67
2017-08-24T02:58:43.002Z,15.60
2017-08-24T02:58:43.601Z,15.64
2017-08-24T02:58:44.199Z,15.61
2017-08-24T02:59:37.685Z,15.66
2017-08-24T02:59:38.264Z,15.63
2017-08-24T02:59:38.855Z,15.61
2017-08-24T02:59:39.450Z,15.52
2017-08-24T02:59:40.047Z,15.64
2017-08-24T02:59:40.647Z,15.57
2017-08-24T02:59:41.246Z,15.67
2017-08-24T02:59:41.851Z,15.61
2017-08-24T03:00:35.885Z,15.61
2017-08-24T03:00:36.393Z,15.56
2017-08-24T03:00:36.993Z,15.61
2017-08-24T03:00:37.597Z,15.61
2017-08-24T03:00:38.189Z,15.60
2017-08-24T03:00:38.788Z,15.70
2017-08-24T03:00:39.389Z,15.57
2017-08-24T03:01:52.211Z,15.54
2017-08-24T03:01:52.810Z,15.60
2017-08-24T03:01:53.411Z,15.48
2017-08-24T03:01:54.007Z,15.59
2017-08-24T03:01:54.607Z,15.61
2017-08-24T03:01:55.206Z,15.59
2017-08-24T03:01:55.800Z,15.60
2017-08-24T03:01:56.404Z,15.70
2017-08-24T03:02:50.889Z,15.63
2017-08-24T03:02:51.486Z,15.68
2017-08-24T03:02:52.087Z,15.56
2017-08-24T03:02:52.685Z,15.59
2017-08-24T03:02:53.281Z,15.66
2017-08-24T03:02:53.878Z,15.61
2017-08-24T03:02:54.480Z,15.56
2017-08-24T03:02:55.081Z,15.66
2017-08-24T03:03:49.568Z,15.60
2017-08-24T03:03:50.164Z,15.67
2017-08-24T03:03:50.762Z,15.66
2017-08-24T03:03:51.358Z,15.63
2017-08-24T03:03:51.965Z,15.59
2017-08-24T03:03:52.556Z,15.57
2017-08-24T03:03:53.154Z,15.63
2017-08-24T03:03:53.757Z,15.66
2017-08-24T03:04:47.246Z,15.68
2017-08-24T03:04:47.811Z,15.67
2017-08-24T03:04:48.414Z,15.66
2017-08-24T03:04:49.010Z,15.68
2017-08-24T03:04:49.609Z,15.64
2017-08-24T03:04:50.212Z,15.66
2017-08-24T03:04:50.813Z,15.64
2017-08-24T03:04:51.404Z,15.59
2017-08-24T03:05:44.870Z,15.64
2017-08-24T03:05:45.462Z,15.64
2017-08-24T03:05:46.063Z,15.61
2017-08-24T03:05:46.660Z,15.64
2017-08-24T03:05:47.262Z,15.70
2017-08-24T03:05:47.865Z,15.66
2017-08-24T03:05:48.467Z,15.60
2017-08-24T03:05:49.083Z,15.64
2017-08-24T03:06:42.518Z,15.66
2017-08-24T03:06:43.111Z,15.74
2017-08-24T03:06:43.714Z,15.75
2017-08-24T03:06:44.313Z,15.67
2017-08-24T03:06:44.933Z,15.61
2017-08-24T03:06:45.512Z,15.70
2017-08-24T03:06:46.112Z,15.64
2017-08-24T03:06:46.710Z,15.63
2017-08-24T03:07:40.170Z,15.63
2017-08-24T03:07:40.765Z,15.74
2017-08-24T03:07:41.368Z,15.72
2017-08-24T03:07:41.965Z,15.78
2017-08-24T03:07:42.564Z,15.78
2017-08-24T03:07:43.168Z,15.70
2017-08-24T03:07:43.767Z,15.76
2017-08-24T03:07:44.362Z,15.79
2017-08-24T03:08:38.845Z,15.72
2017-08-24T03:08:39.452Z,15.76
2017-08-24T03:08:40.048Z,15.76
2017-08-24T03:08:40.644Z,15.72
2017-08-24T03:08:41.236Z,15.75
2017-08-24T03:08:41.836Z,15.74
2017-08-24T03:08:42.436Z,15.75
2017-08-24T03:08:43.035Z,15.76
2017-08-24T03:09:37.518Z,15.74
2017-08-24T03:09:38.119Z,15.68
2017-08-24T03:09:38.719Z,15.74
2017-08-24T03:09:39.319Z,15.74
2017-08-24T03:09:39.917Z,15.81
2017-08-24T03:09:40.510Z,15.70
2017-08-24T03:09:41.114Z,15.72
2017-08-24T03:09:41.716Z,15.70
2017-08-24T03:10:36.223Z,15.72
2017-08-24T03:10:36.792Z,15.88
2017-08-24T03:10:37.391Z,15.78
2017-08-24T03:10:37.988Z,15.76
2017-08-24T03:10:38.588Z,15.86
2017-08-24T03:10:39.188Z,15.70
2017-08-24T03:10:39.790Z,15.85
2017-08-24T03:10:40.392Z,15.84
2017-08-24T03:11:34.873Z,15.79
2017-08-24T03:11:35.472Z,15.88
2017-08-24T03:11:36.070Z,15.84
2017-08-24T03:11:36.665Z,15.89
2017-08-24T03:11:37.263Z,15.81
2017-08-24T03:11:37.863Z,15.85
2017-08-24T03:11:38.463Z,15.86
2017-08-24T03:11:39.070Z,15.88
2017-08-24T03:12:32.532Z,15.81
2017-08-24T03:12:33.123Z,15.81
2017-08-24T03:12:33.723Z,15.88
2017-08-24T03:12:34.320Z,15.85
2017-08-24T03:12:34.923Z,15.79
2017-08-24T03:12:35.517Z,15.85
2017-08-24T03:12:36.116Z,15.89
2017-08-24T03:12:36.715Z,15.82
2017-08-24T03:13:30.177Z,15.84
2017-08-24T03:13:30.773Z,15.82
2017-08-24T03:13:31.373Z,15.81
2017-08-24T03:13:31.972Z,15.88
2017-08-24T03:13:32.571Z,15.88
2017-08-24T03:13:33.199Z,15.88
2017-08-24T03:13:33.774Z,15.82
2017-08-24T03:13:34.375Z,15.89
2017-08-24T03:14:28.854Z,15.92
2017-08-24T03:14:29.443Z,15.85
2017-08-24T03:14:30.045Z,15.81
2017-08-24T03:14:30.646Z,15.82
2017-08-24T03:14:31.243Z,15.88
2017-08-24T03:14:31.850Z,15.84
2017-08-24T03:14:32.449Z,15.86
2017-08-24T03:14:33.051Z,15.85
2017-08-24T03:15:27.526Z,15.84
2017-08-24T03:15:28.122Z,15.85
2017-08-24T03:15:28.718Z,15.79
2017-08-24T03:15:29.326Z,15.88
2017-08-24T03:15:29.924Z,15.85
2017-08-24T03:15:30.526Z,15.85
2017-08-24T03:15:31.130Z,15.86
2017-08-24T03:15:31.722Z,15.85
2017-08-24T03:16:26.225Z,15.79
2017-08-24T03:16:26.798Z,15.88
2017-08-24T03:16:27.398Z,15.92
2017-08-24T03:16:28.000Z,15.82
2017-08-24T03:16:28.616Z,15.88
2017-08-24T03:16:29.200Z,15.86
2017-08-24T03:16:29.798Z,15.85
2017-08-24T03:16:30.402Z,15.94
2017-08-24T03:17:24.873Z,15.89
2017-08-24T03:17:25.474Z,15.88
2017-08-24T03:17:26.073Z,15.86
2017-08-24T03:17:26.669Z,15.89
2017-08-24T03:17:27.269Z,15.89
2017-08-24T03:17:27.872Z,15.85
2017-08-24T03:17:28.479Z,15.89
2017-08-24T03:17:29.077Z,15.93
2017-08-24T03:18:22.534Z,15.86
2017-08-24T03:18:23.130Z,15.88
2017-08-24T03:18:23.729Z,15.92
2017-08-24T03:18:24.325Z,15.92
2017-08-24T03:18:24.922Z,15.94
2017-08-24T03:18:25.525Z,15.92
2017-08-24T03:18:26.124Z,15.88
2017-08-24T03:18:26.726Z,15.88
2017-08-24T03:19:21.208Z,15.88
2017-08-24T03:19:21.801Z,15.93
2017-08-24T03:19:22.402Z,15.89
2017-08-24T03:19:23.000Z,15.86
2017-08-24T03:19:23.615Z,15.89
2017-08-24T03:19:24.201Z,15.92
2017-08-24T03:19:24.800Z,15.89
2017-08-24T03:19:25.402Z,15.92
2017-08-24T03:20:19.880Z,15.92
2017-08-24T03:20:20.477Z,15.99
2017-08-24T03:20:21.076Z,15.97
2017-08-24T03:20:21.676Z,15.92
2017-08-24T03:20:22.281Z,15.99
2017-08-24T03:20:22.872Z,15.94
2017-08-24T03:20:23.472Z,15.99
2017-08-24T03:20:24.072Z,15.94
2017-08-24T03:21:18.581Z,15.99
2017-08-24T03:21:19.152Z,15.96
2017-08-24T03:21:19.753Z,15.96
2017-08-24T03:21:20.353Z,15.97
2017-08-24T03:21:20.956Z,16.00
2017-08-24T03:21:21.552Z,16.00
2017-08-24T03:21:22.153Z,15.94
2017-08-24T03:21:22.753Z,15.99
2017-08-24T03:22:17.231Z,15.94
2017-08-24T03:22:17.826Z,15.99
2017-08-24T03:22:18.425Z,15.97
2017-08-24T03:22:19.027Z,15.99
2017-08-24T03:22:19.628Z,15.94
2017-08-24T03:22:20.224Z,15.97
2017-08-24T03:22:20.830Z,16.03
2017-08-24T03:22:21.431Z,16.06
2017-08-24T03:23:14.987Z,16.04
2017-08-24T03:23:15.582Z,16.15
2017-08-24T03:23:16.182Z,16.09
2017-08-24T03:23:16.783Z,16.11
2017-08-24T03:23:17.385Z,16.07
2017-08-24T03:23:17.986Z,16.11
2017-08-24T03:23:18.586Z,16.04
2017-08-24T03:23:19.184Z,16.11
2017-08-24T03:24:12.641Z,16.11
2017-08-24T03:24:13.253Z,16.18
2017-08-24T03:24:13.839Z,16.15
2017-08-24T03:24:14.437Z,16.12
2017-08-24T03:24:15.032Z,16.12
2017-08-24T03:24:15.630Z,16.16
2017-08-24T03:24:16.234Z,16.12
2017-08-24T03:24:16.833Z,16.14
2017-08-24T03:25:11.310Z,16.14
2017-08-24T03:25:11.909Z,16.12
2017-08-24T03:25:12.508Z,16.23
2017-08-24T03:25:13.108Z,16.18
2017-08-24T03:25:13.712Z,16.18
2017-08-24T03:25:14.312Z,16.11
2017-08-24T03:25:14.910Z,16.14
2017-08-24T03:25:15.508Z,16.16
2017-08-24T03:26:10.023Z,16.20
2017-08-24T03:26:10.588Z,16.22
2017-08-24T03:26:11.188Z,16.23
2017-08-24T03:26:11.789Z,16.23
2017-08-24T03:26:12.384Z,16.26
2017-08-24T03:26:12.984Z,16.16
2017-08-24T03:26:13.581Z,16.27
2017-08-24T03:26:14.184Z,16.23
2017-08-24T03:27:07.646Z,16.26
2017-08-24T03:27:08.241Z,16.25
2017-08-24T03:27:08.837Z,16.31
2017-08-24T03:27:09.436Z,16.25
2017-08-24T03:27:10.033Z,16.34
2017-08-24T03:27:10.636Z,16.27
2017-08-24T03:27:11.233Z,16.22
2017-08-24T03:27:11.836Z,16.22
2017-08-24T03:28:05.296Z,16.27
2017-08-24T03:28:05.892Z,16.30
2017-08-24T03:28:06.490Z,16.27
2017-08-24T03:28:07.088Z,16.27